Time;durP1;ratioP1;P1;durP2;ratioP2;P2;SDS_P1;SDS_P2;PMS_P1;PMS_P2;Temp;Humidity;BMP_temperature;BMP_pressure;BME280_temperature;BME280_humidity;BME280_pressure;Samples;Min_cycle;Max_cycle;Signal;HPM_P1;HPM_P2
2022/08/08 00:01:51;;;;;;;3.38;3.08;;;;;;;;;;5079387;28;24426;-46
2022/08/08 00:04:26;;;;;;;3.17;2.60;;;;;;;;;;5084106;28;24510;-46
2022/08/08 00:06:53;;;;;;;3.10;2.80;;;;;;;;;;5086620;28;24414;-46
2022/08/08 00:09:23;;;;;;;3.33;3.03;;;;;;;;;;5087131;28;24428;-45
2022/08/08 00:11:56;;;;;;;2.60;2.40;;;;;;;;;;5081390;28;24465;-46
2022/08/08 00:14:40;;;;;;;3.20;2.90;;;;;;;;;;5086083;28;24441;-46
2022/08/08 00:17:10;;;;;;;2.50;2.30;;;;;;;;;;5068427;28;24414;-46
2022/08/08 00:19:38;;;;;;;2.60;2.40;;;;;;;;;;5079347;28;24503;-46
2022/08/08 00:22:14;;;;;;;2.70;2.50;;;;;;;;;;5081798;28;24933;-46
2022/08/08 00:24:43;;;;;;;3.03;2.72;;;;;;;;;;5070591;28;24451;-46
2022/08/08 00:27:10;;;;;;;3.08;2.80;;;;;;;;;;5071864;28;24423;-47
2022/08/08 00:29:39;;;;;;;3.38;2.60;;;;;;;;;;5073106;28;24448;-46
2022/08/08 00:32:14;;;;;;;2.47;2.28;;;;;;;;;;5069623;28;24418;-46
2022/08/08 00:37:44;;;;;;;2.90;2.60;;;;;;;;;;5086872;28;24478;-45
2022/08/08 00:40:19;;;;;;;3.25;2.70;;;;;;;;;;5081833;28;24459;-45
2022/08/08 00:42:52;;;;;;;2.90;2.70;;;;;;;;;;5080618;28;24433;-45
2022/08/08 00:45:23;;;;;;;2.60;2.40;;;;;;;;;;5068755;28;24414;-45
2022/08/08 00:47:54;;;;;;;2.60;2.40;;;;;;;;;;5072612;28;24533;-46
2022/08/08 00:50:39;;;;;;;3.13;2.93;;;;;;;;;;5080462;28;24520;-45
2022/08/08 00:53:13;;;;;;;2.95;2.70;;;;;;;;;;5081906;28;24521;-45
2022/08/08 00:55:53;;;;;;;3.15;2.90;;;;;;;;;;5073419;28;24438;-44
2022/08/08 00:58:34;;;;;;;3.00;2.70;;;;;;;;;;5080508;28;25037;-45
2022/08/08 01:01:08;;;;;;;2.70;2.50;;;;;;;;;;5083454;28;24541;-45
2022/08/08 01:03:45;;;;;;;3.00;2.70;;;;;;;;;;5084777;28;24414;-46
2022/08/08 01:06:16;;;;;;;2.70;2.50;;;;;;;;;;5084697;28;25026;-45
2022/08/08 01:08:59;;;;;;;2.80;2.60;;;;;;;;;;5083434;28;24429;-45
2022/08/08 01:11:49;;;;;;;2.50;2.40;;;;;;;;;;5069695;28;24957;-45
2022/08/08 01:14:26;;;;;;;2.90;2.70;;;;;;;;;;5080011;28;24461;-46
2022/08/08 01:17:10;;;;;;;3.20;2.50;;;;;;;;;;5072471;28;24422;-45
2022/08/08 01:19:51;;;;;;;2.70;2.50;;;;;;;;;;5067170;28;24401;-44
2022/08/08 01:22:16;;;;;;;2.90;2.70;;;;;;;;;;5080667;28;24480;-46
2022/08/08 01:24:56;;;;;;;3.20;3.00;;;;;;;;;;5084573;28;24422;-45
2022/08/08 01:27:34;;;;;;;3.42;2.97;;;;;;;;;;5070525;28;25121;-45
2022/08/08 01:30:18;;;;;;;3.40;3.10;;;;;;;;;;5084540;28;24672;-45
2022/08/08 01:33:02;;;;;;;3.30;3.00;;;;;;;;;;5075036;28;24437;-45
2022/08/08 01:35:46;;;;;;;3.67;3.07;;;;;;;;;;5075871;28;24965;-45
2022/08/08 01:38:29;;;;;;;3.70;3.40;;;;;;;;;;5072004;28;25044;-46
2022/08/08 01:41:00;;;;;;;3.60;3.30;;;;;;;;;;5071685;28;25042;-46
2022/08/08 01:43:41;;;;;;;3.08;2.85;;;;;;;;;;5073465;28;24429;-46
2022/08/08 01:46:09;;;;;;;3.30;3.00;;;;;;;;;;5067266;28;24419;-46
2022/08/08 01:48:57;;;;;;;4.43;3.00;;;;;;;;;;5075662;28;24439;-46
2022/08/08 01:51:39;;;;;;;3.97;3.20;;;;;;;;;;5081195;28;26236;-46
2022/08/08 01:54:24;;;;;;;3.38;2.90;;;;;;;;;;5087069;28;25223;-47
2022/08/08 01:57:17;;;;;;;3.55;3.25;;;;;;;;;;5074459;28;24425;-46
2022/08/08 01:59:54;;;;;;;3.67;3.03;;;;;;;;;;5083676;28;24402;-46
2022/08/08 02:02:22;;;;;;;3.22;2.92;;;;;;;;;;5068139;28;24425;-46
2022/08/08 02:05:02;;;;;;;3.20;3.00;;;;;;;;;;5070945;28;24992;-46
2022/08/08 02:07:32;;;;;;;3.30;3.03;;;;;;;;;;5071227;28;24457;-46
2022/08/08 02:10:00;;;;;;;3.25;3.05;;;;;;;;;;5080572;28;24491;-46
2022/08/08 02:12:29;;;;;;;3.83;3.42;;;;;;;;;;5070353;28;24545;-47
2022/08/08 02:15:08;;;;;;;2.90;2.70;;;;;;;;;;5073402;28;24469;-46
2022/08/08 02:17:36;;;;;;;3.10;2.90;;;;;;;;;;5076569;28;24768;-46
2022/08/08 02:20:07;;;;;;;3.00;2.80;;;;;;;;;;5081029;28;25064;-46
2022/08/08 02:22:52;;;;;;;3.07;2.80;;;;;;;;;;5084221;28;24471;-47
2022/08/08 02:25:20;;;;;;;3.50;3.20;;;;;;;;;;5085099;28;24989;-47
2022/08/08 02:28:04;;;;;;;3.08;2.88;;;;;;;;;;5078498;28;24519;-47
2022/08/08 02:30:29;;;;;;;3.10;2.90;;;;;;;;;;5072153;28;25319;-46
2022/08/08 02:32:54;;;;;;;3.28;3.08;;;;;;;;;;5082178;28;24986;-46
2022/08/08 02:35:33;;;;;;;3.30;3.10;;;;;;;;;;5079653;28;24471;-46
2022/08/08 02:38:18;;;;;;;2.90;2.70;;;;;;;;;;5083526;28;24952;-44
2022/08/08 02:40:55;;;;;;;3.60;3.30;;;;;;;;;;5087364;28;24889;-45
2022/08/08 02:43:39;;;;;;;3.25;2.95;;;;;;;;;;5076900;28;24414;-45
2022/08/08 02:46:23;;;;;;;3.33;3.13;;;;;;;;;;5089119;28;24387;-45
2022/08/08 02:49:00;;;;;;;3.63;3.33;;;;;;;;;;5069603;28;24447;-46
2022/08/08 02:51:34;;;;;;;3.40;3.10;;;;;;;;;;5071001;28;24864;-45
2022/08/08 02:54:02;;;;;;;3.27;2.97;;;;;;;;;;5082360;28;24488;-45
2022/08/08 02:56:33;;;;;;;3.20;3.00;;;;;;;;;;5084191;28;24509;-45
2022/08/08 02:59:10;;;;;;;3.37;3.10;;;;;;;;;;5071738;28;25098;-46
2022/08/08 03:01:54;;;;;;;3.60;3.30;;;;;;;;;;5074552;28;24521;-46
2022/08/08 03:04:19;;;;;;;3.40;3.20;;;;;;;;;;5071000;28;24426;-45
2022/08/08 03:06:55;;;;;;;3.28;3.00;;;;;;;;;;5081596;28;24433;-45
2022/08/08 03:09:39;;;;;;;3.28;3.08;;;;;;;;;;5071269;28;24512;-45
2022/08/08 03:12:31;;;;;;;3.30;3.10;;;;;;;;;;5078932;28;24462;-45
2022/08/08 03:15:06;;;;;;;3.63;3.25;;;;;;;;;;5068936;28;24508;-45
2022/08/08 03:17:42;;;;;;;3.20;3.00;;;;;;;;;;5076680;28;24431;-46
2022/08/08 03:20:10;;;;;;;3.60;3.30;;;;;;;;;;5072913;28;24426;-45
2022/08/08 03:22:42;;;;;;;3.55;3.10;;;;;;;;;;5088772;28;24517;-46
2022/08/08 03:25:08;;;;;;;3.40;3.10;;;;;;;;;;5083316;28;24431;-45
2022/08/08 03:27:36;;;;;;;3.30;3.00;;;;;;;;;;5080796;28;24440;-45
2022/08/08 03:30:04;;;;;;;3.17;2.90;;;;;;;;;;5079209;28;24453;-46
2022/08/08 03:35:14;;;;;;;3.08;2.88;;;;;;;;;;5087419;28;24425;-44
2022/08/08 03:37:39;;;;;;;3.53;2.90;;;;;;;;;;5075600;28;24415;-44
2022/08/08 03:40:05;;;;;;;3.00;2.80;;;;;;;;;;5073383;28;25007;-45
2022/08/08 03:42:30;;;;;;;3.17;2.90;;;;;;;;;;5086548;28;24522;-44
2022/08/08 03:44:55;;;;;;;3.30;3.10;;;;;;;;;;5086477;28;24472;-45
2022/08/08 03:47:21;;;;;;;3.05;2.85;;;;;;;;;;5083361;28;24508;-45
2022/08/08 03:49:47;;;;;;;3.17;2.97;;;;;;;;;;5081060;28;24433;-45
2022/08/08 03:52:13;;;;;;;2.80;2.60;;;;;;;;;;5078884;28;24437;-46
2022/08/08 03:54:40;;;;;;;3.10;2.90;;;;;;;;;;5067570;28;24439;-45
2022/08/08 03:57:15;;;;;;;2.80;2.60;;;;;;;;;;5081427;28;24936;-45
2022/08/08 03:59:40;;;;;;;3.33;3.10;;;;;;;;;;5074138;28;24540;-45
2022/08/08 04:02:15;;;;;;;3.00;2.80;;;;;;;;;;5085029;28;25006;-45
2022/08/08 04:04:41;;;;;;;3.40;3.00;;;;;;;;;;5071074;28;24727;-46
2022/08/08 04:07:06;;;;;;;3.20;3.00;;;;;;;;;;5081031;28;24456;-46
2022/08/08 04:09:31;;;;;;;3.30;3.00;;;;;;;;;;5079983;28;24525;-46
2022/08/08 04:11:58;;;;;;;3.40;3.10;;;;;;;;;;5078862;28;24456;-46
2022/08/08 04:14:23;;;;;;;3.17;2.87;;;;;;;;;;5080714;28;24987;-47
2022/08/08 04:16:48;;;;;;;3.40;3.20;;;;;;;;;;5074104;28;25018;-44
2022/08/08 04:19:14;;;;;;;5.25;3.88;;;;;;;;;;5081027;28;25041;-46
2022/08/08 04:21:39;;;;;;;3.73;3.43;;;;;;;;;;5079300;28;24426;-45
2022/08/08 04:24:04;;;;;;;3.38;3.13;;;;;;;;;;5074542;28;24514;-45
2022/08/08 04:26:29;;;;;;;3.20;3.00;;;;;;;;;;5066818;28;24442;-45
2022/08/08 04:28:54;;;;;;;3.40;3.10;;;;;;;;;;5069481;28;25246;-45
2022/08/08 04:31:20;;;;;;;3.03;2.83;;;;;;;;;;5083277;28;24514;-45
2022/08/08 04:33:45;;;;;;;3.80;3.50;;;;;;;;;;5080337;28;24469;-46
2022/08/08 04:36:10;;;;;;;3.35;3.15;;;;;;;;;;5084229;28;24513;-45
2022/08/08 04:38:35;;;;;;;3.60;3.30;;;;;;;;;;5071754;28;24487;-45
2022/08/08 04:41:00;;;;;;;3.55;3.25;;;;;;;;;;5082114;28;24453;-45
2022/08/08 04:43:26;;;;;;;3.43;3.23;;;;;;;;;;5085206;28;24509;-45
2022/08/08 04:45:51;;;;;;;3.38;3.08;;;;;;;;;;5082763;28;24418;-46
2022/08/08 04:48:16;;;;;;;3.30;3.00;;;;;;;;;;5071390;28;24837;-45
2022/08/08 04:50:42;;;;;;;3.40;3.10;;;;;;;;;;5069349;28;25003;-45
2022/08/08 04:53:07;;;;;;;3.55;3.25;;;;;;;;;;5088362;28;24455;-45
2022/08/08 04:55:32;;;;;;;3.20;3.00;;;;;;;;;;5077039;28;24527;-45
2022/08/08 04:57:58;;;;;;;5.23;3.30;;;;;;;;;;5072704;28;24842;-45
2022/08/08 05:00:24;;;;;;;3.73;3.43;;;;;;;;;;5068557;28;24973;-46
2022/08/08 05:02:49;;;;;;;4.32;3.92;;;;;;;;;;5070846;28;25078;-46
2022/08/08 05:05:14;;;;;;;3.83;3.40;;;;;;;;;;5069280;28;24434;-45
2022/08/08 05:07:39;;;;;;;3.70;3.40;;;;;;;;;;5082514;28;24985;-46
2022/08/08 05:10:05;;;;;;;3.70;3.40;;;;;;;;;;5081983;28;24430;-46
2022/08/08 05:12:30;;;;;;;4.00;3.57;;;;;;;;;;5069773;28;24430;-46
2022/08/08 05:14:55;;;;;;;3.50;3.20;;;;;;;;;;5074118;28;24464;-45
2022/08/08 05:17:20;;;;;;;3.95;3.33;;;;;;;;;;5070851;28;24454;-45
2022/08/08 05:19:45;;;;;;;3.50;3.20;;;;;;;;;;5082572;28;24414;-46
2022/08/08 05:22:10;;;;;;;3.70;3.10;;;;;;;;;;5064223;28;25007;-46
2022/08/08 05:24:36;;;;;;;3.40;3.10;;;;;;;;;;5075410;28;24441;-45
2022/08/08 05:27:02;;;;;;;3.30;3.10;;;;;;;;;;5064245;28;24473;-45
2022/08/08 05:29:27;;;;;;;3.90;3.50;;;;;;;;;;5063736;28;25234;-45
2022/08/08 05:31:52;;;;;;;3.10;2.90;;;;;;;;;;5072862;28;24414;-45
2022/08/08 05:34:24;;;;;;;3.20;2.90;;;;;;;;;;5084667;28;25051;-45
2022/08/08 05:36:51;;;;;;;2.78;2.58;;;;;;;;;;5066174;28;24411;-46
2022/08/08 05:39:19;;;;;;;2.92;2.72;;;;;;;;;;5068996;28;24987;-46
2022/08/08 05:41:44;;;;;;;2.88;2.67;;;;;;;;;;5070768;28;24519;-44
2022/08/08 05:44:14;;;;;;;3.00;2.80;;;;;;;;;;5084025;28;24964;-46
2022/08/08 05:46:40;;;;;;;3.00;2.80;;;;;;;;;;5080615;28;24434;-45
2022/08/08 05:49:06;;;;;;;3.13;2.90;;;;;;;;;;5084362;28;24467;-45
2022/08/08 05:51:32;;;;;;;3.30;3.00;;;;;;;;;;5075076;28;24550;-44
2022/08/08 05:53:57;;;;;;;3.20;2.90;;;;;;;;;;5063790;28;24542;-45
2022/08/08 05:56:23;;;;;;;2.90;2.70;;;;;;;;;;5075767;28;24711;-45
2022/08/08 05:58:54;;;;;;;2.90;2.70;;;;;;;;;;5074343;28;24418;-44
2022/08/08 06:01:21;;;;;;;3.30;3.00;;;;;;;;;;5069662;28;25692;-45
2022/08/08 06:03:47;;;;;;;2.90;2.70;;;;;;;;;;5070916;28;24419;-45
2022/08/08 06:06:12;;;;;;;3.30;3.00;;;;;;;;;;5071662;28;24445;-45
2022/08/08 06:08:49;;;;;;;3.10;2.90;;;;;;;;;;5071918;28;24415;-45
2022/08/08 06:11:14;;;;;;;2.80;2.60;;;;;;;;;;5065108;28;24512;-46
2022/08/08 06:13:39;;;;;;;3.13;2.50;;;;;;;;;;5071575;28;24526;-45
2022/08/08 06:16:05;;;;;;;3.00;2.70;;;;;;;;;;5076814;28;24504;-45
2022/08/08 06:18:30;;;;;;;3.00;2.63;;;;;;;;;;5069285;28;24419;-45
2022/08/08 06:20:56;;;;;;;3.10;2.53;;;;;;;;;;5071342;28;25027;-46
2022/08/08 06:23:22;;;;;;;2.90;2.70;;;;;;;;;;5079505;28;24929;-45
2022/08/08 06:26:01;;;;;;;2.72;2.53;;;;;;;;;;5067843;28;24433;-45
2022/08/08 06:28:31;;;;;;;2.78;2.58;;;;;;;;;;5085875;28;24468;-44
2022/08/08 06:31:01;;;;;;;2.55;2.35;;;;;;;;;;5079037;28;24546;-45
2022/08/08 06:33:33;;;;;;;2.50;2.30;;;;;;;;;;5082648;28;24426;-45
2022/08/08 06:35:58;;;;;;;3.80;2.60;;;;;;;;;;5081826;28;24422;-46
2022/08/08 06:38:26;;;;;;;2.80;2.50;;;;;;;;;;5084950;28;24394;-45
2022/08/08 06:40:52;;;;;;;3.70;3.10;;;;;;;;;;5086859;28;24398;-45
2022/08/08 06:43:19;;;;;;;2.50;2.30;;;;;;;;;;5081029;28;24761;-45
2022/08/08 06:45:44;;;;;;;3.30;3.00;;;;;;;;;;5087062;28;24413;-46
2022/08/08 06:48:10;;;;;;;4.03;2.80;;;;;;;;;;5086660;28;25210;-46
2022/08/08 06:50:35;;;;;;;3.78;2.40;;;;;;;;;;5086806;28;24501;-46
2022/08/08 06:53:01;;;;;;;4.18;2.70;;;;;;;;;;5086155;28;24406;-46
2022/08/08 06:55:27;;;;;;;2.90;2.60;;;;;;;;;;5086318;28;25077;-46
2022/08/08 06:57:52;;;;;;;2.90;2.60;;;;;;;;;;5086792;28;24943;-46
2022/08/08 07:00:17;;;;;;;2.50;2.30;;;;;;;;;;5086795;28;24499;-46
2022/08/08 07:02:50;;;;;;;3.40;2.70;;;;;;;;;;5086259;28;24798;-47
2022/08/08 07:05:18;;;;;;;3.50;2.80;;;;;;;;;;5086141;28;24413;-46
2022/08/08 07:07:43;;;;;;;3.33;3.03;;;;;;;;;;5086525;28;24382;-47
2022/08/08 07:10:09;;;;;;;2.92;2.63;;;;;;;;;;5086596;28;24387;-46
2022/08/08 07:12:44;;;;;;;2.67;2.47;;;;;;;;;;5086120;28;24960;-45
2022/08/08 07:15:10;;;;;;;2.53;2.33;;;;;;;;;;5085936;28;24425;-46
2022/08/08 07:17:41;;;;;;;2.53;2.33;;;;;;;;;;5086332;28;24390;-45
2022/08/08 07:20:07;;;;;;;2.60;2.40;;;;;;;;;;5087961;28;24540;-46
2022/08/08 07:22:51;;;;;;;3.08;2.78;;;;;;;;;;5090065;28;24469;-46
2022/08/08 07:25:17;;;;;;;5.20;3.03;;;;;;;;;;5089889;28;24405;-46
2022/08/08 07:27:46;;;;;;;2.40;2.20;;;;;;;;;;5089453;28;24959;-45
2022/08/08 07:30:11;;;;;;;2.10;2.00;;;;;;;;;;5089804;28;24391;-46
2022/08/08 07:32:37;;;;;;;2.90;2.70;;;;;;;;;;5089534;28;24463;-47
2022/08/08 07:35:03;;;;;;;2.50;2.30;;;;;;;;;;5089295;28;24511;-45
2022/08/08 07:37:29;;;;;;;2.83;2.40;;;;;;;;;;5070873;28;24990;-50
2022/08/08 07:39:55;;;;;;;2.97;2.50;;;;;;;;;;5067704;28;24432;-47
2022/08/08 07:42:22;;;;;;;2.50;2.30;;;;;;;;;;5067507;28;24384;-45
2022/08/08 07:44:47;;;;;;;4.10;2.67;;;;;;;;;;5067125;28;24487;-45
2022/08/08 07:47:12;;;;;;;3.50;2.80;;;;;;;;;;5068717;28;24983;-45
2022/08/08 07:49:38;;;;;;;2.80;2.60;;;;;;;;;;5069179;28;24457;-45
2022/08/08 07:52:05;;;;;;;4.05;2.45;;;;;;;;;;5068806;28;24391;-45
2022/08/08 07:54:41;;;;;;;2.40;2.20;;;;;;;;;;5068426;28;24566;-45
2022/08/08 07:57:17;;;;;;;2.28;2.08;;;;;;;;;;5068379;28;24401;-47
2022/08/08 08:00:05;;;;;;;2.80;2.10;;;;;;;;;;5068504;28;24456;-48
2022/08/08 08:02:36;;;;;;;2.35;2.20;;;;;;;;;;5065057;28;24481;-47
2022/08/08 08:05:02;;;;;;;2.97;2.28;;;;;;;;;;5078234;28;24510;-45
2022/08/08 08:07:33;;;;;;;2.20;2.00;;;;;;;;;;5088964;28;24501;-45
2022/08/08 08:10:01;;;;;;;2.20;1.93;;;;;;;;;;5088718;28;24390;-48
2022/08/08 08:12:26;;;;;;;2.00;1.80;;;;;;;;;;5088081;28;24505;-46
2022/08/08 08:14:51;;;;;;;2.00;1.70;;;;;;;;;;5088885;28;24525;-47
2022/08/08 08:17:17;;;;;;;2.08;1.90;;;;;;;;;;5088517;28;24386;-47
2022/08/08 08:19:43;;;;;;;2.20;1.80;;;;;;;;;;5088323;28;24835;-46
2022/08/08 08:22:09;;;;;;;1.80;1.70;;;;;;;;;;5088116;28;24438;-46
2022/08/08 08:24:34;;;;;;;1.95;1.80;;;;;;;;;;5088538;28;24565;-46
2022/08/08 08:26:59;;;;;;;2.30;2.10;;;;;;;;;;5088979;28;24405;-44
2022/08/08 08:29:26;;;;;;;1.80;1.53;;;;;;;;;;5088093;28;24502;-46
2022/08/08 08:31:51;;;;;;;2.00;1.80;;;;;;;;;;5088394;28;24932;-47
2022/08/08 08:34:16;;;;;;;2.50;1.75;;;;;;;;;;5088533;28;24424;-45
2022/08/08 08:36:43;;;;;;;1.92;1.83;;;;;;;;;;5088887;28;24749;-46
2022/08/08 08:39:08;;;;;;;1.98;1.88;;;;;;;;;;5088349;28;24655;-47
2022/08/08 08:41:33;;;;;;;2.15;2.05;;;;;;;;;;5088364;28;24414;-45
2022/08/08 08:43:59;;;;;;;2.20;1.97;;;;;;;;;;5088538;28;24439;-46
2022/08/08 08:46:26;;;;;;;1.80;1.70;;;;;;;;;;5088360;28;25219;-45
2022/08/08 08:48:52;;;;;;;1.85;1.75;;;;;;;;;;5088188;28;24463;-45
2022/08/08 08:51:17;;;;;;;2.70;2.00;;;;;;;;;;5088261;28;24471;-45
2022/08/08 08:53:45;;;;;;;3.20;2.00;;;;;;;;;;5087898;28;24479;-45
2022/08/08 08:56:12;;;;;;;2.53;2.00;;;;;;;;;;5087975;28;24588;-45
2022/08/08 08:58:41;;;;;;;2.10;1.90;;;;;;;;;;5088164;28;24464;-46
2022/08/08 09:01:07;;;;;;;1.70;1.60;;;;;;;;;;5087767;28;24947;-46
2022/08/08 09:03:33;;;;;;;2.90;1.90;;;;;;;;;;5087756;28;24421;-46
2022/08/08 09:05:58;;;;;;;1.80;1.70;;;;;;;;;;5087994;28;24402;-46
2022/08/08 09:08:26;;;;;;;2.80;2.10;;;;;;;;;;5087881;28;24408;-45
2022/08/08 09:10:51;;;;;;;1.80;1.70;;;;;;;;;;5087886;28;24792;-46
2022/08/08 09:13:17;;;;;;;1.80;1.70;;;;;;;;;;5087981;28;24400;-47
2022/08/08 09:15:42;;;;;;;2.00;1.90;;;;;;;;;;5087900;28;25047;-46
2022/08/08 09:18:07;;;;;;;2.70;2.00;;;;;;;;;;5087394;28;24405;-45
2022/08/08 09:20:33;;;;;;;2.27;2.03;;;;;;;;;;5087846;28;24466;-47
2022/08/08 09:22:59;;;;;;;2.22;2.03;;;;;;;;;;5087418;28;24967;-46
2022/08/08 09:25:25;;;;;;;2.00;1.90;;;;;;;;;;5087514;28;24413;-46
2022/08/08 09:27:51;;;;;;;2.03;1.83;;;;;;;;;;5087742;28;24409;-46
2022/08/08 09:30:16;;;;;;;2.00;1.80;;;;;;;;;;5087552;28;25053;-45
2022/08/08 09:32:52;;;;;;;1.90;1.80;;;;;;;;;;5087193;28;24394;-46
2022/08/08 09:35:19;;;;;;;1.70;1.60;;;;;;;;;;5087663;28;24433;-47
2022/08/08 09:37:45;;;;;;;1.80;1.70;;;;;;;;;;5074406;28;24427;-46
2022/08/08 09:40:15;;;;;;;2.30;2.10;;;;;;;;;;5064300;28;24474;-46
2022/08/08 09:42:44;;;;;;;2.20;2.00;;;;;;;;;;5066215;28;24406;-45
2022/08/08 09:45:20;;;;;;;2.70;2.00;;;;;;;;;;5066509;28;24911;-45
2022/08/08 09:47:46;;;;;;;2.10;1.90;;;;;;;;;;5066449;28;24426;-44
2022/08/08 09:50:12;;;;;;;1.90;1.80;;;;;;;;;;5066981;28;24391;-45
2022/08/08 09:52:39;;;;;;;2.40;2.10;;;;;;;;;;5066469;28;25033;-47
2022/08/08 09:55:05;;;;;;;2.33;2.00;;;;;;;;;;5066687;28;24738;-45
2022/08/08 09:57:32;;;;;;;2.40;2.20;;;;;;;;;;5066235;28;24402;-46
2022/08/08 09:59:58;;;;;;;1.92;1.75;;;;;;;;;;5066832;28;24375;-46
2022/08/08 10:02:29;;;;;;;3.28;2.20;;;;;;;;;;5066238;28;24402;-45
2022/08/08 10:05:01;;;;;;;2.20;2.08;;;;;;;;;;5082396;28;24404;-45
2022/08/08 10:07:26;;;;;;;2.72;1.88;;;;;;;;;;5086337;28;24399;-45
2022/08/08 10:09:51;;;;;;;1.90;1.80;;;;;;;;;;5086958;28;24400;-45
2022/08/08 10:12:17;;;;;;;3.55;1.92;;;;;;;;;;5086490;28;24808;-45
2022/08/08 10:14:42;;;;;;;2.10;1.90;;;;;;;;;;5086547;28;24429;-46
2022/08/08 10:17:08;;;;;;;2.33;2.13;;;;;;;;;;5086337;28;24470;-46
2022/08/08 10:19:37;;;;;;;2.47;2.10;;;;;;;;;;5086416;28;24424;-45
2022/08/08 10:22:03;;;;;;;2.90;2.10;;;;;;;;;;5086716;28;24390;-45
2022/08/08 10:24:29;;;;;;;2.10;1.90;;;;;;;;;;5086014;28;24414;-45
2022/08/08 10:26:57;;;;;;;3.10;2.10;;;;;;;;;;5086464;28;24964;-46
2022/08/08 10:29:38;;;;;;;2.85;2.05;;;;;;;;;;5086463;28;24406;-46
2022/08/08 10:34:50;;;;;;;2.10;1.90;;;;;;;;;;5086325;28;24483;-46
2022/08/08 10:37:22;;;;;;;2.40;2.10;;;;;;;;;;5086525;28;25008;-46
2022/08/08 10:39:47;;;;;;;1.98;1.88;;;;;;;;;;5086476;28;24398;-47
2022/08/08 10:42:13;;;;;;;2.53;2.10;;;;;;;;;;5086413;28;24807;-46
2022/08/08 10:44:40;;;;;;;2.10;1.90;;;;;;;;;;5086481;28;24400;-46
2022/08/08 10:47:13;;;;;;;2.58;1.95;;;;;;;;;;5086347;28;24446;-45
2022/08/08 10:49:42;;;;;;;2.40;2.17;;;;;;;;;;5086355;28;24489;-46
2022/08/08 10:52:07;;;;;;;2.60;2.40;;;;;;;;;;5086264;28;24452;-47
2022/08/08 10:54:33;;;;;;;2.70;1.90;;;;;;;;;;5088898;28;24442;-46
2022/08/08 10:56:59;;;;;;;2.28;1.75;;;;;;;;;;5090133;28;24970;-46
2022/08/08 10:59:24;;;;;;;1.88;1.77;;;;;;;;;;5090107;28;24482;-46
2022/08/08 11:01:49;;;;;;;1.87;1.77;;;;;;;;;;5090256;28;24855;-45
2022/08/08 11:04:15;;;;;;;2.00;1.90;;;;;;;;;;5089938;28;24410;-45
2022/08/08 11:06:40;;;;;;;1.80;1.70;;;;;;;;;;5090208;28;24483;-46
2022/08/08 11:09:07;;;;;;;1.90;1.80;;;;;;;;;;5089906;28;24402;-45
2022/08/08 11:11:51;;;;;;;3.10;2.10;;;;;;;;;;5089729;28;24765;-45
2022/08/08 11:14:16;;;;;;;2.33;1.90;;;;;;;;;;5090044;28;24437;-45
2022/08/08 11:16:42;;;;;;;1.85;1.75;;;;;;;;;;5090001;28;24407;-46
2022/08/08 11:19:08;;;;;;;2.67;2.20;;;;;;;;;;5090092;28;24553;-46
2022/08/08 11:21:34;;;;;;;1.95;1.85;;;;;;;;;;5089442;28;25381;-45
2022/08/08 11:24:03;;;;;;;2.30;2.10;;;;;;;;;;5090101;28;24406;-46
2022/08/08 11:26:29;;;;;;;2.13;2.03;;;;;;;;;;5089722;28;24494;-45
2022/08/08 11:28:55;;;;;;;2.00;1.80;;;;;;;;;;5089354;28;24844;-46
2022/08/08 11:31:23;;;;;;;3.70;1.95;;;;;;;;;;5089610;28;24451;-45
2022/08/08 11:33:48;;;;;;;4.10;2.10;;;;;;;;;;5087353;28;24506;-45
2022/08/08 11:36:14;;;;;;;1.90;1.80;;;;;;;;;;5089470;28;24848;-46
2022/08/08 11:38:44;;;;;;;1.80;1.70;;;;;;;;;;5081679;28;25403;-45
2022/08/08 11:41:09;;;;;;;1.80;1.70;;;;;;;;;;5088949;28;25000;-46
2022/08/08 11:43:35;;;;;;;2.50;1.70;;;;;;;;;;5088844;28;24461;-46
2022/08/08 11:46:02;;;;;;;2.07;1.93;;;;;;;;;;5089535;28;24880;-46
2022/08/08 11:48:27;;;;;;;1.80;1.70;;;;;;;;;;5089110;28;24432;-46
2022/08/08 11:50:53;;;;;;;5.10;2.30;;;;;;;;;;5088810;28;24387;-46
2022/08/08 11:53:19;;;;;;;3.00;2.10;;;;;;;;;;5088967;28;24745;-45
2022/08/08 11:55:50;;;;;;;2.80;2.13;;;;;;;;;;5089042;28;25078;-46
2022/08/08 11:58:16;;;;;;;2.28;1.80;;;;;;;;;;5089007;28;25035;-46
2022/08/08 12:00:47;;;;;;;2.97;1.90;;;;;;;;;;5089287;28;24549;-46
2022/08/08 12:03:20;;;;;;;2.40;1.90;;;;;;;;;;5081257;28;24457;-47
2022/08/08 12:05:46;;;;;;;2.07;1.80;;;;;;;;;;5068348;28;24860;-47
2022/08/08 12:08:11;;;;;;;2.00;1.90;;;;;;;;;;5069117;28;25392;-46
2022/08/08 12:10:45;;;;;;;2.20;2.00;;;;;;;;;;5088746;28;24802;-46
2022/08/08 12:13:13;;;;;;;2.33;2.03;;;;;;;;;;5083185;28;24419;-46
2022/08/08 12:15:39;;;;;;;2.20;2.00;;;;;;;;;;5068249;28;24789;-46
2022/08/08 12:18:11;;;;;;;1.80;1.70;;;;;;;;;;5068071;28;24933;-46
2022/08/08 12:20:38;;;;;;;1.65;1.55;;;;;;;;;;5068127;28;24977;-45
2022/08/08 12:23:03;;;;;;;1.90;1.80;;;;;;;;;;5068395;28;24399;-46
2022/08/08 12:25:31;;;;;;;4.45;1.73;;;;;;;;;;5068141;28;25051;-44
2022/08/08 12:28:08;;;;;;;2.50;2.08;;;;;;;;;;5068144;28;24405;-45
2022/08/08 12:30:34;;;;;;;1.90;1.80;;;;;;;;;;5068076;28;24403;-45
2022/08/08 12:33:00;;;;;;;2.15;1.95;;;;;;;;;;5068245;28;24452;-45
2022/08/08 12:35:32;;;;;;;2.10;1.90;;;;;;;;;;5068236;28;24433;-45
2022/08/08 12:38:06;;;;;;;3.72;2.20;;;;;;;;;;5068587;28;24390;-45
2022/08/08 12:40:47;;;;;;;2.20;2.00;;;;;;;;;;5067696;28;24967;-46
2022/08/08 12:43:14;;;;;;;2.35;2.15;;;;;;;;;;5067722;28;24943;-45
2022/08/08 12:45:40;;;;;;;1.90;1.80;;;;;;;;;;5068733;28;24474;-45
2022/08/08 12:48:18;;;;;;;2.00;1.90;;;;;;;;;;5068052;28;24426;-45
2022/08/08 12:50:46;;;;;;;2.20;1.90;;;;;;;;;;5068000;28;24410;-45
2022/08/08 12:53:19;;;;;;;2.10;1.90;;;;;;;;;;5067610;28;24409;-46
2022/08/08 12:55:51;;;;;;;2.10;1.90;;;;;;;;;;5068234;28;24492;-45
2022/08/08 12:58:16;;;;;;;2.13;1.92;;;;;;;;;;5068084;28;24394;-46
2022/08/08 13:00:41;;;;;;;2.10;2.00;;;;;;;;;;5068002;28;24400;-45
2022/08/08 13:03:07;;;;;;;1.90;1.80;;;;;;;;;;5079603;28;24438;-46
2022/08/08 13:05:32;;;;;;;1.90;1.80;;;;;;;;;;5087414;28;24383;-45
2022/08/08 13:07:57;;;;;;;2.20;2.00;;;;;;;;;;5088057;28;24402;-46
2022/08/08 13:10:29;;;;;;;2.30;2.10;;;;;;;;;;5087839;28;24485;-46
2022/08/08 13:12:59;;;;;;;2.00;1.90;;;;;;;;;;5087714;28;24413;-45
2022/08/08 13:15:28;;;;;;;2.10;2.00;;;;;;;;;;5085495;28;24474;-46
2022/08/08 13:17:53;;;;;;;2.13;1.92;;;;;;;;;;5086614;28;24402;-46
2022/08/08 13:20:19;;;;;;;2.23;2.00;;;;;;;;;;5087596;28;24408;-46
2022/08/08 13:22:44;;;;;;;1.95;1.83;;;;;;;;;;5087849;28;24786;-45
2022/08/08 13:25:14;;;;;;;2.40;2.10;;;;;;;;;;5087248;28;24780;-45
2022/08/08 13:27:39;;;;;;;2.20;2.00;;;;;;;;;;5087453;28;24395;-48
2022/08/08 13:30:05;;;;;;;2.20;2.00;;;;;;;;;;5087790;28;24459;-45
2022/08/08 13:32:36;;;;;;;2.78;2.10;;;;;;;;;;5087501;28;24448;-46
2022/08/08 13:35:02;;;;;;;2.08;1.95;;;;;;;;;;5087233;28;24507;-44
2022/08/08 13:37:28;;;;;;;1.98;1.88;;;;;;;;;;5087446;28;24424;-44
2022/08/08 13:39:54;;;;;;;1.90;1.80;;;;;;;;;;5079479;28;24418;-46
2022/08/08 13:42:21;;;;;;;1.70;1.60;;;;;;;;;;5084753;28;24402;-47
2022/08/08 13:44:52;;;;;;;2.30;2.10;;;;;;;;;;5084767;28;24459;-46
2022/08/08 13:47:17;;;;;;;3.60;1.88;;;;;;;;;;5086567;28;24422;-46
2022/08/08 13:49:43;;;;;;;2.10;1.90;;;;;;;;;;5087057;28;24764;-45
2022/08/08 13:52:09;;;;;;;2.53;1.80;;;;;;;;;;5086883;28;24439;-46
2022/08/08 13:54:35;;;;;;;2.53;2.00;;;;;;;;;;5086266;28;24781;-46
2022/08/08 13:57:01;;;;;;;2.25;2.05;;;;;;;;;;5087165;28;24386;-46
2022/08/08 13:59:27;;;;;;;1.90;1.80;;;;;;;;;;5087056;28;24764;-45
2022/08/08 14:01:53;;;;;;;2.20;1.73;;;;;;;;;;5086430;28;24447;-45
2022/08/08 14:04:20;;;;;;;2.00;1.90;;;;;;;;;;5083962;28;24410;-46
2022/08/08 14:06:45;;;;;;;1.90;1.80;;;;;;;;;;5086759;28;24401;-45
2022/08/08 14:09:11;;;;;;;2.30;2.10;;;;;;;;;;5086803;28;25310;-45
2022/08/08 14:11:36;;;;;;;2.35;1.70;;;;;;;;;;5086457;28;24460;-45
2022/08/08 14:14:01;;;;;;;1.90;1.80;;;;;;;;;;5086637;28;24986;-45
2022/08/08 14:16:26;;;;;;;2.00;1.90;;;;;;;;;;5086402;28;24430;-46
2022/08/08 14:18:52;;;;;;;3.43;2.40;;;;;;;;;;5086881;28;24390;-46
2022/08/08 14:21:17;;;;;;;2.20;2.00;;;;;;;;;;5086575;28;24429;-46
2022/08/08 14:23:43;;;;;;;3.00;2.10;;;;;;;;;;5086326;28;24809;-46
2022/08/08 14:26:18;;;;;;;1.90;1.80;;;;;;;;;;5084761;28;24401;-47
2022/08/08 14:28:54;;;;;;;2.10;1.90;;;;;;;;;;5087660;28;24951;-47
2022/08/08 14:31:19;;;;;;;2.00;1.90;;;;;;;;;;5090803;28;24394;-46
2022/08/08 14:33:49;;;;;;;2.20;2.00;;;;;;;;;;5090764;28;24444;-46
2022/08/08 14:36:14;;;;;;;1.80;1.70;;;;;;;;;;5090480;28;24398;-46
2022/08/08 14:38:40;;;;;;;2.20;2.00;;;;;;;;;;5090607;28;24417;-45
2022/08/08 14:41:09;;;;;;;2.10;1.90;;;;;;;;;;5090494;28;24478;-45
2022/08/08 14:43:45;;;;;;;2.25;2.15;;;;;;;;;;5090062;28;24384;-45
2022/08/08 14:46:12;;;;;;;3.20;2.10;;;;;;;;;;5090678;28;24391;-47
2022/08/08 14:48:45;;;;;;;3.97;2.30;;;;;;;;;;5090118;28;24414;-45
2022/08/08 14:51:10;;;;;;;2.47;2.28;;;;;;;;;;5090378;28;24549;-45
2022/08/08 14:53:36;;;;;;;2.17;1.98;;;;;;;;;;5090125;28;24501;-46
2022/08/08 14:56:02;;;;;;;1.90;1.80;;;;;;;;;;5087963;28;24440;-45
2022/08/08 14:58:27;;;;;;;2.30;2.10;;;;;;;;;;5090050;28;24816;-46
2022/08/08 15:00:53;;;;;;;2.60;2.30;;;;;;;;;;5090449;28;24500;-45
2022/08/08 15:03:18;;;;;;;2.88;2.40;;;;;;;;;;5090118;28;24390;-45